createdAt,value
2018-08-05T00:00:25.619Z,24.77
2018-08-05T00:02:54.572Z,24.88
2018-08-05T00:05:23.567Z,24.49
2018-08-05T00:07:52.584Z,24.78
2018-08-05T00:10:21.527Z,24.92
2018-08-05T00:12:50.551Z,24.64
2018-08-05T00:15:19.537Z,24.69
2018-08-05T00:17:48.577Z,24.86
2018-08-05T00:20:17.581Z,25.36
2018-08-05T00:22:46.518Z,25.69
2018-08-05T00:25:15.469Z,25.59
2018-08-05T00:27:44.441Z,25.54
2018-08-05T00:30:13.782Z,25.19
2018-08-05T00:32:43.058Z,25.40
2018-08-05T00:35:12.299Z,25.36
2018-08-05T00:37:41.231Z,25.84
2018-08-05T00:40:11.775Z,25.26
2018-08-05T00:42:40.735Z,25.48
2018-08-05T00:45:11.051Z,25.25
2018-08-05T00:47:40.262Z,25.41
2018-08-05T00:50:09.706Z,25.32
2018-08-05T00:52:38.712Z,24.96
2018-08-05T00:55:08.002Z,25.17
2018-08-05T00:57:36.988Z,25.40
2018-08-05T01:00:07.711Z,25.50
2018-08-05T01:02:36.714Z,25.47
2018-08-05T01:05:06.046Z,25.54
2018-08-05T01:07:34.975Z,25.04
2018-08-05T01:10:03.991Z,25.05
2018-08-05T01:12:32.998Z,24.79
2018-08-05T01:15:02.027Z,25.05
2018-08-05T01:17:31.010Z,24.97
2018-08-05T01:20:00.075Z,24.74
2018-08-05T01:22:29.027Z,24.85
2018-08-05T01:24:58.019Z,24.70
2018-08-05T01:27:27.071Z,24.87
2018-08-05T01:29:56.050Z,24.76
2018-08-05T01:32:25.086Z,24.94
2018-08-05T01:34:54.099Z,24.86
2018-08-05T01:37:23.052Z,25.19
2018-08-05T01:39:52.081Z,24.95
2018-08-05T01:42:21.060Z,24.79
2018-08-05T01:44:50.031Z,24.77
2018-08-05T01:47:19.019Z,24.71
2018-08-05T01:49:47.992Z,24.64
2018-08-05T01:52:16.970Z,24.36
2018-08-05T01:54:45.950Z,24.59
2018-08-05T01:57:14.943Z,24.27
2018-08-05T01:59:43.927Z,24.54
2018-08-05T02:02:12.919Z,24.69
2018-08-05T02:04:42.861Z,25.00
2018-08-05T02:07:11.839Z,24.66
2018-08-05T02:09:40.806Z,24.71
2018-08-05T02:12:09.855Z,24.15
2018-08-05T02:14:38.800Z,23.68
2018-08-05T02:17:07.786Z,23.85
2018-08-05T02:19:36.767Z,24.20
2018-08-05T02:22:05.933Z,24.00
2018-08-05T02:24:34.999Z,24.05
2018-08-05T02:27:04.015Z,23.61
2018-08-05T02:29:32.966Z,23.74
2018-08-05T02:32:01.968Z,23.67
2018-08-05T02:34:30.946Z,23.69
2018-08-05T02:36:59.911Z,23.24
2018-08-05T02:39:28.880Z,23.82
2018-08-05T02:41:57.863Z,24.08
2018-08-05T02:44:26.811Z,23.53
2018-08-05T02:46:55.822Z,23.60
2018-08-05T02:49:24.781Z,23.87
2018-08-05T02:51:53.755Z,23.33
2018-08-05T02:54:22.786Z,23.21
2018-08-05T02:56:51.752Z,23.32
2018-08-05T02:59:20.910Z,23.13
2018-08-05T03:01:49.874Z,23.13
2018-08-05T03:04:18.906Z,22.96
2018-08-05T03:06:47.967Z,23.01
2018-08-05T03:09:17.010Z,23.33
2018-08-05T03:11:45.957Z,23.22
2018-08-05T03:14:14.896Z,23.16
2018-08-05T03:16:43.889Z,23.56
2018-08-05T03:19:12.858Z,22.96
2018-08-05T03:21:41.831Z,22.91
2018-08-05T03:24:10.819Z,23.13
2018-08-05T03:26:39.779Z,22.30
2018-08-05T03:29:08.838Z,22.58
2018-08-05T03:31:37.791Z,23.15
2018-08-05T03:34:06.864Z,22.92
2018-08-05T03:36:35.794Z,22.34
2018-08-05T03:39:07.075Z,22.98
2018-08-05T03:41:36.082Z,23.33
2018-08-05T03:44:05.119Z,22.88
2018-08-05T03:46:34.121Z,23.02
2018-08-05T03:49:03.106Z,23.37
2018-08-05T03:51:32.113Z,23.23
2018-08-05T03:54:01.093Z,23.02
2018-08-05T03:56:30.033Z,22.68
2018-08-05T03:58:59.050Z,23.49
2018-08-05T04:01:27.991Z,23.27
2018-08-05T04:03:58.050Z,23.59
2018-08-05T04:06:26.974Z,22.85
2018-08-05T04:08:56.204Z,23.31
2018-08-05T04:11:25.197Z,23.10
2018-08-05T04:13:54.168Z,22.77
2018-08-05T04:16:23.108Z,22.71
2018-08-05T04:18:52.076Z,22.86
2018-08-05T04:21:21.059Z,22.55
2018-08-05T04:23:50.000Z,23.03
2018-08-05T04:26:19.029Z,23.52
2018-08-05T04:28:47.947Z,23.38
2018-08-05T04:31:16.929Z,22.87
2018-08-05T04:33:45.887Z,22.97
2018-08-05T04:36:14.992Z,23.27
2018-08-05T04:38:43.959Z,23.06
2018-08-05T04:41:12.951Z,23.35
2018-08-05T04:43:41.878Z,23.26
2018-08-05T04:46:10.956Z,23.26
2018-08-05T04:48:39.923Z,23.28
2018-08-05T04:51:08.923Z,23.16
2018-08-05T04:53:37.867Z,23.39
2018-08-05T04:56:06.933Z,23.37
2018-08-05T04:58:35.868Z,22.97
2018-08-05T05:01:04.825Z,23.14
2018-08-05T05:03:33.817Z,22.97
2018-08-05T05:06:02.787Z,23.05
2018-08-05T05:08:31.764Z,23.08
2018-08-05T05:11:00.728Z,23.10
2018-08-05T05:13:29.677Z,23.30
2018-08-05T05:15:58.678Z,23.04
2018-08-05T05:18:27.779Z,22.36
2018-08-05T05:20:56.804Z,22.99
2018-08-05T05:23:25.755Z,23.33
2018-08-05T05:25:54.734Z,23.60
2018-08-05T05:28:23.755Z,23.55
2018-08-05T05:30:52.737Z,23.37
2018-08-05T05:33:21.871Z,23.58
2018-08-05T05:35:50.847Z,23.61
2018-08-05T05:38:19.805Z,23.56
2018-08-05T05:40:48.907Z,23.28
2018-08-05T05:43:17.902Z,22.93
2018-08-05T05:45:46.878Z,23.53
2018-08-05T05:48:16.012Z,24.29
2018-08-05T05:50:45.025Z,24.08
2018-08-05T05:53:14.029Z,24.91
2018-08-05T05:55:43.050Z,24.74
2018-08-05T05:58:12.136Z,24.29
2018-08-05T06:00:41.088Z,24.71
2018-08-05T06:03:10.098Z,24.55
2018-08-05T06:05:39.178Z,25.25
2018-08-05T06:08:08.181Z,25.91
2018-08-05T06:10:37.140Z,25.67
2018-08-05T06:13:06.451Z,24.95
2018-08-05T06:15:35.495Z,25.42
2018-08-05T06:18:04.507Z,25.41
2018-08-05T06:20:33.474Z,25.98
2018-08-05T06:23:02.469Z,25.82
2018-08-05T06:25:31.418Z,27.39
2018-08-05T06:28:00.433Z,26.68
2018-08-05T06:30:29.371Z,27.24
2018-08-05T06:32:58.324Z,27.75
2018-08-05T06:35:27.324Z,26.91
2018-08-05T06:37:56.335Z,26.54
2018-08-05T06:40:25.371Z,25.15
2018-08-05T06:42:55.337Z,25.23
2018-08-05T06:45:24.349Z,25.38
2018-08-05T06:47:53.307Z,26.75
2018-08-05T06:50:22.324Z,26.47
2018-08-05T06:52:51.511Z,27.71
2018-08-05T06:55:20.521Z,28.39
2018-08-05T06:57:49.498Z,28.52
2018-08-05T07:00:18.472Z,29.67
2018-08-05T07:02:47.506Z,29.97
2018-08-05T07:05:16.497Z,32.04
2018-08-05T07:07:45.499Z,33.05
2018-08-05T07:10:14.476Z,32.79
2018-08-05T07:12:43.498Z,35.32
2018-08-05T07:15:12.561Z,31.56
2018-08-05T07:17:41.575Z,30.29
2018-08-05T07:20:10.766Z,28.47
2018-08-05T07:22:40.502Z,27.40
2018-08-05T07:25:12.019Z,26.79
2018-08-05T07:27:42.514Z,26.76
2018-08-05T07:30:14.365Z,28.21
2018-08-05T07:32:44.664Z,30.50
2018-08-05T07:35:14.766Z,31.40
2018-08-05T07:37:44.882Z,31.74
2018-08-05T07:40:15.761Z,30.68
2018-08-05T07:42:45.846Z,31.21
2018-08-05T07:45:14.887Z,32.75
2018-08-05T07:47:43.991Z,32.62
2018-08-05T07:50:14.084Z,33.83
2018-08-05T07:52:43.111Z,34.88
2018-08-05T07:55:12.220Z,34.89
2018-08-05T07:57:41.324Z,34.40
2018-08-05T08:00:13.074Z,34.25
2018-08-05T08:02:43.008Z,35.94
2018-08-05T08:05:12.695Z,34.64
2018-08-05T08:07:42.572Z,34.64
2018-08-05T08:10:12.471Z,33.67
2018-08-05T08:12:41.649Z,35.34
2018-08-05T08:15:11.765Z,33.69
2018-08-05T08:17:41.398Z,34.61
2018-08-05T08:20:11.135Z,33.61
2018-08-05T08:22:40.325Z,32.83
2018-08-05T08:25:09.761Z,32.02
2018-08-05T08:27:38.860Z,31.29
2018-08-05T08:30:09.965Z,32.80
2018-08-05T08:32:39.070Z,34.92
2018-08-05T08:35:08.891Z,34.58
2018-08-05T08:37:38.201Z,34.82
2018-08-05T08:40:09.204Z,30.97
2018-08-05T08:42:38.211Z,30.02
2018-08-05T08:45:09.285Z,29.42
2018-08-05T08:47:38.302Z,28.85
2018-08-05T08:50:08.158Z,31.00
2018-08-05T08:52:37.340Z,32.62
2018-08-05T08:55:06.659Z,33.42
2018-08-05T08:57:35.753Z,35.27
2018-08-05T09:00:06.388Z,36.61
2018-08-05T09:02:35.416Z,34.65
2018-08-05T09:05:04.787Z,33.79
2018-08-05T09:07:33.746Z,34.08
2018-08-05T09:10:02.784Z,34.13
2018-08-05T09:12:31.816Z,34.15
2018-08-05T09:15:00.828Z,32.73
2018-08-05T09:17:29.852Z,31.26
2018-08-05T09:19:58.956Z,29.84
2018-08-05T09:22:27.990Z,28.77
2018-08-05T09:24:57.046Z,28.40
2018-08-05T09:27:26.389Z,28.37
2018-08-05T09:29:55.379Z,28.04
2018-08-05T09:32:24.408Z,27.94
2018-08-05T09:34:53.431Z,28.26
2018-08-05T09:37:22.378Z,30.83
2018-08-05T09:39:51.395Z,33.22
2018-08-05T09:42:20.414Z,34.80
2018-08-05T09:44:49.498Z,34.74
2018-08-05T09:47:18.547Z,35.39
2018-08-05T09:49:47.627Z,35.81
2018-08-05T09:52:16.743Z,36.92
2018-08-05T09:54:45.748Z,37.37
2018-08-05T09:57:14.833Z,36.70
2018-08-05T09:59:43.844Z,35.58
2018-08-05T10:02:12.858Z,32.78
2018-08-05T10:04:41.928Z,30.63
2018-08-05T10:07:10.987Z,30.23
2018-08-05T10:09:40.038Z,29.10
2018-08-05T10:12:09.100Z,28.07
2018-08-05T10:14:38.132Z,29.43
2018-08-05T10:17:07.158Z,30.89
2018-08-05T10:19:36.255Z,31.75
2018-08-05T10:22:05.290Z,32.71
2018-08-05T10:24:34.328Z,33.43
2018-08-05T10:27:03.405Z,32.91
2018-08-05T10:29:32.400Z,33.23
2018-08-05T10:32:01.407Z,35.22
2018-08-05T10:34:30.448Z,36.30
2018-08-05T10:36:59.470Z,35.74
2018-08-05T10:39:28.536Z,33.50
2018-08-05T10:41:57.543Z,33.11
2018-08-05T10:44:26.593Z,33.26
2018-08-05T10:46:55.764Z,35.40
2018-08-05T10:49:25.718Z,34.29
2018-08-05T10:51:54.785Z,32.66
2018-08-05T10:54:23.826Z,31.52
2018-08-05T10:56:52.940Z,30.41
2018-08-05T10:59:22.134Z,32.05
2018-08-05T11:01:51.179Z,31.66
2018-08-05T11:04:20.195Z,31.87
2018-08-05T11:06:49.279Z,33.41
2018-08-05T11:09:19.161Z,35.07
2018-08-05T11:11:48.300Z,34.72
2018-08-05T11:14:17.299Z,35.10
2018-08-05T11:16:46.445Z,34.33
2018-08-05T11:19:15.615Z,32.96
2018-08-05T11:21:44.722Z,33.71
2018-08-05T11:24:13.744Z,34.34
2018-08-05T11:26:42.875Z,34.88
2018-08-05T11:29:11.920Z,36.11
2018-08-05T11:31:41.231Z,36.23
2018-08-05T11:34:10.347Z,35.15
2018-08-05T11:36:39.378Z,35.26
2018-08-05T11:39:10.269Z,33.86
2018-08-05T11:41:39.431Z,34.41
2018-08-05T11:44:08.537Z,33.76
2018-08-05T11:46:37.583Z,32.48
2018-08-05T11:49:09.655Z,33.17
2018-08-05T11:51:39.314Z,32.37
2018-08-05T11:54:08.336Z,32.33
2018-08-05T11:56:37.403Z,32.23
2018-08-05T11:59:06.634Z,32.42
2018-08-05T12:01:35.697Z,32.90
2018-08-05T12:04:04.702Z,32.81
2018-08-05T12:06:33.686Z,31.29
2018-08-05T12:09:02.759Z,31.52
2018-08-05T12:11:31.769Z,30.42
2018-08-05T12:14:00.855Z,30.72
2018-08-05T12:16:29.826Z,30.95
2018-08-05T12:18:58.902Z,30.79
2018-08-05T12:21:27.971Z,30.97
2018-08-05T12:23:56.915Z,30.86
2018-08-05T12:26:25.923Z,31.22
2018-08-05T12:28:54.939Z,32.06
2018-08-05T12:31:23.851Z,31.66
2018-08-05T12:33:53.107Z,32.13
2018-08-05T12:36:22.104Z,31.97
2018-08-05T12:38:51.219Z,32.56
2018-08-05T12:41:20.267Z,32.34
2018-08-05T12:43:50.031Z,32.00
2018-08-05T12:46:19.041Z,31.65
2018-08-05T12:48:48.066Z,30.86
2018-08-05T12:51:22.363Z,31.05
2018-08-05T12:53:51.654Z,30.97
2018-08-05T12:56:20.738Z,30.57
2018-08-05T12:58:49.764Z,31.36
2018-08-05T13:01:18.791Z,30.40
2018-08-05T13:03:47.851Z,30.53
2018-08-05T13:06:16.912Z,30.18
2018-08-05T13:08:45.970Z,30.80
2018-08-05T13:11:14.994Z,30.83
2018-08-05T13:13:44.034Z,31.17
2018-08-05T13:16:13.065Z,30.36
2018-08-05T13:18:42.119Z,30.92
2018-08-05T13:21:11.130Z,31.16
2018-08-05T13:23:40.156Z,30.43
2018-08-05T13:26:09.186Z,30.63
2018-08-05T13:28:38.183Z,29.68
2018-08-05T13:31:07.261Z,30.47
2018-08-05T13:33:36.316Z,30.41
2018-08-05T13:36:05.366Z,30.55
2018-08-05T13:38:34.366Z,30.93
2018-08-05T13:41:03.426Z,30.29
2018-08-05T13:43:32.558Z,31.09
2018-08-05T13:46:01.659Z,30.39
2018-08-05T13:48:30.672Z,31.31
2018-08-05T13:50:59.802Z,30.16
2018-08-05T13:53:28.828Z,30.67
2018-08-05T13:55:57.887Z,31.05
2018-08-05T13:58:26.975Z,30.90
2018-08-05T14:00:56.042Z,30.83
2018-08-05T14:03:25.033Z,30.46
2018-08-05T14:05:54.115Z,30.38
2018-08-05T14:08:23.362Z,30.40
2018-08-05T14:10:52.466Z,30.27
2018-08-05T14:13:21.498Z,30.26
2018-08-05T14:15:50.550Z,29.84
2018-08-05T14:18:19.615Z,29.83
2018-08-05T14:20:48.683Z,30.13
2018-08-05T14:23:17.711Z,30.73
2018-08-05T14:25:46.754Z,29.19
2018-08-05T14:28:15.799Z,29.92
2018-08-05T14:30:45.859Z,30.11
2018-08-05T14:33:15.043Z,30.25
2018-08-05T14:35:44.198Z,30.70
2018-08-05T14:38:13.251Z,29.87
2018-08-05T14:40:42.307Z,29.86
2018-08-05T14:43:11.424Z,30.47
2018-08-05T14:45:40.487Z,30.10
2018-08-05T14:48:14.705Z,29.67
2018-08-05T14:50:43.747Z,30.57
2018-08-05T14:53:12.834Z,30.54
2018-08-05T14:55:41.863Z,30.30
2018-08-05T14:58:10.862Z,30.39
2018-08-05T15:00:39.850Z,30.65
2018-08-05T15:03:08.852Z,30.09
2018-08-05T15:05:37.897Z,30.48
2018-08-05T15:08:06.935Z,30.15
2018-08-05T15:10:35.911Z,29.58
2018-08-05T15:13:04.915Z,30.11
2018-08-05T15:15:34.251Z,30.03
2018-08-05T15:18:03.308Z,29.91
2018-08-05T15:20:32.343Z,30.07
2018-08-05T15:23:01.376Z,29.89
2018-08-05T15:25:30.406Z,29.92
2018-08-05T15:27:59.447Z,30.24
2018-08-05T15:30:28.452Z,30.11
2018-08-05T15:32:57.475Z,30.20
2018-08-05T15:35:26.560Z,29.83
2018-08-05T15:37:55.524Z,29.95
2018-08-05T15:40:25.677Z,29.69
2018-08-05T15:42:54.673Z,29.87
2018-08-05T15:45:23.817Z,29.90
2018-08-05T15:47:52.840Z,29.86
2018-08-05T15:50:21.878Z,30.18
2018-08-05T15:52:50.910Z,30.03
2018-08-05T15:55:19.923Z,29.59
2018-08-05T15:57:49.021Z,29.84
2018-08-05T16:00:18.037Z,29.37
2018-08-05T16:02:47.040Z,29.57
2018-08-05T16:05:16.072Z,29.26
2018-08-05T16:07:45.156Z,29.11
2018-08-05T16:10:14.222Z,29.18
2018-08-05T16:12:43.238Z,29.20
2018-08-05T16:15:12.284Z,28.94
2018-08-05T16:17:41.327Z,29.13
2018-08-05T16:20:10.405Z,29.05
2018-08-05T16:22:39.439Z,28.79
2018-08-05T16:25:08.478Z,29.31
2018-08-05T16:27:37.456Z,29.45
2018-08-05T16:30:07.038Z,29.20
2018-08-05T16:32:36.114Z,29.14
2018-08-05T16:35:05.182Z,28.81
2018-08-05T16:37:34.194Z,28.93
2018-08-05T16:40:03.210Z,29.49
2018-08-05T16:42:32.272Z,29.39
2018-08-05T16:45:01.268Z,29.59
2018-08-05T16:47:31.211Z,28.60
2018-08-05T16:50:00.268Z,29.15
2018-08-05T16:52:29.281Z,29.09
2018-08-05T16:54:58.364Z,28.95
2018-08-05T16:57:27.359Z,28.50
2018-08-05T16:59:56.438Z,28.43
2018-08-05T17:02:25.451Z,28.43
2018-08-05T17:04:54.450Z,28.33
2018-08-05T17:07:23.438Z,27.62
2018-08-05T17:09:52.439Z,28.59
2018-08-05T17:12:21.471Z,27.97
2018-08-05T17:14:51.526Z,27.95
2018-08-05T17:17:20.489Z,28.27
2018-08-05T17:19:49.564Z,28.26
2018-08-05T17:22:18.557Z,28.43
2018-08-05T17:24:47.596Z,27.98
2018-08-05T17:27:16.611Z,28.02
2018-08-05T17:29:45.616Z,28.03
2018-08-05T17:32:14.613Z,27.82
2018-08-05T17:34:43.709Z,28.07
2018-08-05T17:37:12.711Z,27.65
2018-08-05T17:39:41.728Z,27.48
2018-08-05T17:42:10.991Z,27.45
2018-08-05T17:44:39.981Z,27.49
2018-08-05T17:47:09.129Z,27.81
2018-08-05T17:49:38.067Z,28.10
2018-08-05T17:52:07.063Z,27.59
2018-08-05T17:54:36.073Z,27.61
2018-08-05T17:57:05.291Z,27.23
2018-08-05T17:59:34.418Z,27.05
2018-08-05T18:02:03.388Z,27.18
2018-08-05T18:04:32.448Z,26.81
2018-08-05T18:07:01.439Z,27.13
2018-08-05T18:09:30.486Z,27.04
2018-08-05T18:11:59.483Z,27.02
2018-08-05T18:14:28.520Z,27.06
2018-08-05T18:16:57.591Z,26.47
2018-08-05T18:19:26.625Z,26.99
2018-08-05T18:21:55.652Z,26.31
2018-08-05T18:24:24.617Z,27.02
2018-08-05T18:26:53.649Z,26.78
2018-08-05T18:29:22.946Z,26.15
2018-08-05T18:31:51.955Z,26.45
2018-08-05T18:34:21.057Z,26.36
2018-08-05T18:36:50.067Z,26.62
2018-08-05T18:39:19.049Z,26.68
2018-08-05T18:41:47.991Z,26.52
2018-08-05T18:44:16.954Z,26.39
2018-08-05T18:46:45.875Z,26.27
2018-08-05T18:49:14.911Z,26.49
2018-08-05T18:51:43.874Z,26.37
2018-08-05T18:54:12.898Z,26.19
2018-08-05T18:56:41.879Z,25.81
2018-08-05T18:59:10.883Z,26.03
2018-08-05T19:01:40.070Z,26.09
2018-08-05T19:04:09.128Z,25.74
2018-08-05T19:06:38.103Z,25.40
2018-08-05T19:09:08.893Z,25.64
2018-08-05T19:11:37.922Z,25.54
2018-08-05T19:14:07.092Z,25.83
2018-08-05T19:19:15.843Z,25.54
2018-08-05T19:21:44.866Z,25.28
2018-08-05T19:24:14.051Z,24.82
2018-08-05T19:26:43.143Z,24.96
2018-08-05T19:29:12.149Z,24.54
2018-08-05T19:31:41.199Z,24.56
2018-08-05T19:34:10.200Z,24.31
2018-08-05T19:36:39.283Z,24.19
2018-08-05T19:39:10.442Z,24.18
2018-08-05T19:41:39.452Z,24.06
2018-08-05T19:44:08.573Z,23.95
2018-08-05T19:46:37.615Z,23.74
2018-08-05T19:49:06.605Z,23.35
2018-08-05T19:51:35.630Z,23.37
2018-08-05T19:54:04.713Z,23.20
2018-08-05T19:56:33.806Z,22.82
2018-08-05T19:59:02.822Z,22.71
2018-08-05T20:01:31.892Z,22.76
2018-08-05T20:04:00.912Z,22.70
2018-08-05T20:06:29.927Z,22.69
2018-08-05T20:08:58.990Z,22.84
2018-08-05T20:11:28.034Z,22.93
2018-08-05T20:13:57.268Z,22.81
2018-08-05T20:16:26.380Z,22.90
2018-08-05T20:18:55.359Z,22.50
2018-08-05T20:21:24.580Z,22.37
2018-08-05T20:23:53.554Z,22.27
2018-08-05T20:26:22.786Z,22.24
2018-08-05T20:28:51.778Z,22.25
2018-08-05T20:31:20.807Z,22.24
2018-08-05T20:33:50.278Z,21.88
2018-08-05T20:36:19.299Z,22.06
2018-08-05T20:38:48.339Z,21.84
2018-08-05T20:41:17.331Z,21.99
2018-08-05T20:43:46.353Z,22.03
2018-08-05T20:46:15.429Z,21.87
2018-08-05T20:48:44.479Z,21.67
2018-08-05T20:51:13.614Z,21.73
2018-08-05T20:53:42.635Z,21.74
2018-08-05T20:56:11.666Z,21.29
2018-08-05T20:58:40.732Z,21.48
2018-08-05T21:01:09.802Z,21.32
2018-08-05T21:03:38.858Z,21.28
2018-08-05T21:06:07.809Z,21.44
2018-08-05T21:08:36.817Z,21.26
2018-08-05T21:11:05.873Z,21.18
2018-08-05T21:13:35.896Z,21.25
2018-08-05T21:16:04.970Z,21.03
2018-08-05T21:18:33.935Z,20.88
2018-08-05T21:21:03.130Z,20.76
2018-08-05T21:23:32.135Z,20.97
2018-08-05T21:26:01.110Z,21.03
2018-08-05T21:28:30.083Z,20.88
2018-08-05T21:30:59.049Z,20.58
2018-08-05T21:33:28.715Z,20.69
2018-08-05T21:35:57.953Z,20.69
2018-08-05T21:38:26.957Z,20.82
2018-08-05T21:40:55.978Z,20.68
2018-08-05T21:43:24.971Z,20.57
2018-08-05T21:45:53.922Z,20.62
2018-08-05T21:48:22.966Z,20.42
2018-08-05T21:50:51.963Z,20.43
2018-08-05T21:53:21.321Z,20.42
2018-08-05T21:55:50.265Z,20.48
2018-08-05T21:58:19.261Z,20.32
2018-08-05T22:00:48.287Z,20.23
2018-08-05T22:03:17.312Z,20.27
2018-08-05T22:05:47.287Z,20.14
2018-08-05T22:08:16.256Z,20.36
2018-08-05T22:10:45.324Z,20.09
2018-08-05T22:13:14.295Z,19.58
2018-08-05T22:15:43.277Z,19.97
2018-08-05T22:18:12.241Z,19.91
2018-08-05T22:20:41.255Z,19.88
2018-08-05T22:23:10.313Z,19.65
2018-08-05T22:25:39.363Z,19.37
2018-08-05T22:28:08.386Z,19.44
2018-08-05T22:30:37.391Z,19.19
2018-08-05T22:33:06.382Z,19.66
2018-08-05T22:35:35.402Z,19.47
2018-08-05T22:38:04.424Z,19.23
2018-08-05T22:40:33.461Z,19.37
2018-08-05T22:43:02.419Z,19.37
2018-08-05T22:45:31.395Z,19.50
2018-08-05T22:48:06.825Z,19.37
2018-08-05T22:50:35.834Z,19.38
2018-08-05T22:53:04.867Z,19.44
2018-08-05T22:55:33.870Z,19.39
2018-08-05T22:58:02.995Z,19.26
2018-08-05T23:00:32.031Z,18.84
2018-08-05T23:03:01.022Z,19.04
2018-08-05T23:05:30.045Z,19.07
2018-08-05T23:07:59.029Z,18.88
2018-08-05T23:10:28.146Z,18.76
2018-08-05T23:12:57.118Z,18.91
2018-08-05T23:15:26.769Z,19.11
2018-08-05T23:17:56.097Z,18.97
2018-08-05T23:20:25.099Z,18.87
2018-08-05T23:22:59.623Z,18.87
2018-08-05T23:25:28.859Z,18.95
2018-08-05T23:27:59.046Z,19.15
2018-08-05T23:30:28.991Z,18.89
2018-08-05T23:32:58.025Z,19.22
2018-08-05T23:35:27.059Z,18.90
2018-08-05T23:37:56.066Z,19.04
2018-08-05T23:40:26.123Z,18.84
2018-08-05T23:42:55.194Z,18.89
2018-08-05T23:45:24.835Z,18.45
2018-08-05T23:47:53.822Z,18.35
2018-08-05T23:50:26.753Z,18.39
2018-08-05T23:52:56.227Z,18.47
2018-08-05T23:55:25.283Z,18.35
2018-08-05T23:57:54.443Z,18.46
